Time;durP1;ratioP1;P1;durP2;ratioP2;P2;SDS_P1;SDS_P2;PMS_P1;PMS_P2;Temp;Humidity;BMP_temperature;BMP_pressure;BME280_temperature;BME280_humidity;BME280_pressure;Samples;Min_cycle;Max_cycle;Signal;HPM_P1;HPM_P2
2021/07/06 00:02:04;;;;;;;1.10;1.10;;;;;;;22.64;59.39;100635.19;5105581;28;20040;-62
2021/07/06 00:04:30;;;;;;;1.05;1.05;;;;;;;22.60;59.22;100621.50;5103063;28;20138;-62
2021/07/06 00:06:56;;;;;;;1.40;1.27;;;;;;;22.58;59.28;100618.22;5105822;28;20035;-62
2021/07/06 00:09:22;;;;;;;1.27;1.20;;;;;;;22.63;59.20;100619.47;5104558;28;20366;-62
2021/07/06 00:11:48;;;;;;;1.50;1.40;;;;;;;22.63;59.42;100608.88;5106465;28;20050;-62
2021/07/06 00:14:13;;;;;;;1.20;1.10;;;;;;;22.61;59.27;100609.03;5101794;28;20024;-62
2021/07/06 00:16:39;;;;;;;1.35;1.30;;;;;;;22.61;59.35;100601.91;5104454;28;20055;-62
2021/07/06 00:19:05;;;;;;;1.40;1.40;;;;;;;22.59;59.04;100601.28;5104979;28;20092;-62
2021/07/06 00:21:30;;;;;;;1.40;1.30;;;;;;;22.59;59.28;100597.81;5104665;28;20127;-62
2021/07/06 00:23:56;;;;;;;1.17;1.17;;;;;;;22.59;59.24;100595.97;5105419;28;20062;-62
2021/07/06 00:26:22;;;;;;;1.08;1.08;;;;;;;22.59;59.43;100588.00;5104051;28;20044;-62
2021/07/06 00:28:47;;;;;;;1.33;1.23;;;;;;;22.58;59.09;100594.34;5104651;28;20031;-62
2021/07/06 00:31:13;;;;;;;1.30;1.20;;;;;;;22.59;59.22;100589.84;5105041;28;20047;-62
2021/07/06 00:33:39;;;;;;;1.25;1.25;;;;;;;22.54;59.26;100585.16;5105312;28;20043;-62
2021/07/06 00:36:04;;;;;;;1.15;1.10;;;;;;;22.44;59.18;100576.81;5105547;28;20035;-62
2021/07/06 00:38:31;;;;;;;0.90;0.90;;;;;;;22.56;59.14;100593.72;5104855;28;20032;-62
2021/07/06 00:40:58;;;;;;;1.05;1.05;;;;;;;22.56;59.34;100592.91;5105742;28;20529;-62
2021/07/06 00:43:24;;;;;;;1.05;1.05;;;;;;;22.55;59.18;100588.63;5102543;28;20027;-62
2021/07/06 00:45:59;;;;;;;1.10;1.10;;;;;;;22.54;59.33;100593.13;5104596;28;20039;-62
2021/07/06 00:48:25;;;;;;;0.90;0.90;;;;;;;22.55;59.50;100589.44;5101124;28;20066;-62
2021/07/06 00:50:51;;;;;;;0.90;0.90;;;;;;;22.49;59.32;100578.84;5105482;28;20397;-62
2021/07/06 00:53:17;;;;;;;0.98;0.98;;;;;;;22.39;59.43;100558.00;5087497;28;20040;-62
2021/07/06 00:55:43;;;;;;;1.17;1.17;;;;;;;22.54;59.14;100577.19;5105590;28;20047;-62
2021/07/06 00:58:13;;;;;;;0.70;0.70;;;;;;;22.53;59.30;100575.56;5104703;28;20031;-62
2021/07/06 01:00:38;;;;;;;1.08;1.08;;;;;;;22.53;59.37;100578.22;5105197;28;20119;-62
2021/07/06 01:03:05;;;;;;;1.13;1.13;;;;;;;22.53;59.36;100580.88;5105280;28;20425;-62
2021/07/06 01:05:31;;;;;;;1.30;1.20;;;;;;;22.52;59.30;100571.28;5103454;28;20062;-62
2021/07/06 01:07:56;;;;;;;1.20;1.20;;;;;;;22.52;59.14;100568.63;5104723;28;20402;-62
2021/07/06 01:10:22;;;;;;;1.27;1.20;;;;;;;22.52;59.58;100554.53;5086613;28;20046;-62
2021/07/06 01:12:52;;;;;;;0.98;0.98;;;;;;;22.51;59.23;100531.69;5099279;28;20117;-62
2021/07/06 01:15:21;;;;;;;0.90;0.90;;;;;;;22.51;59.36;100515.75;5104385;28;20398;-62
2021/07/06 01:18:01;;;;;;;1.05;1.05;;;;;;;22.50;59.26;100517.59;5104394;28;20478;-62
2021/07/06 01:20:28;;;;;;;0.88;0.88;;;;;;;22.48;59.32;100514.34;5105114;27;20126;-62
2021/07/06 01:22:53;;;;;;;0.80;0.80;;;;;;;22.48;59.54;100511.69;5104760;27;20036;-62
2021/07/06 01:25:19;;;;;;;1.05;1.05;;;;;;;22.49;59.38;100525.78;5105128;28;20035;-62
2021/07/06 01:27:44;;;;;;;1.10;1.10;;;;;;;22.48;59.22;100524.94;5106520;27;20104;-62
2021/07/06 01:30:13;;;;;;;0.90;0.90;;;;;;;22.48;59.42;100526.78;5106773;27;20051;-62
2021/07/06 01:32:48;;;;;;;1.20;1.08;;;;;;;22.47;59.37;100523.31;5105465;27;20036;-62
2021/07/06 01:35:15;;;;;;;1.00;1.00;;;;;;;22.47;59.12;100525.16;5106786;27;20040;-62
2021/07/06 01:38:02;;;;;;;0.90;0.90;;;;;;;22.46;59.42;100520.88;5104932;28;20039;-62
2021/07/06 01:40:30;;;;;;;0.60;0.60;;;;;;;22.46;59.18;100518.22;5105992;27;20420;-62
2021/07/06 01:42:56;;;;;;;0.95;0.95;;;;;;;22.46;59.50;100518.22;5106639;27;20461;-62
2021/07/06 01:45:25;;;;;;;1.00;1.00;;;;;;;22.45;59.15;100525.38;5105937;28;20419;-62
2021/07/06 01:47:52;;;;;;;0.90;0.90;;;;;;;22.45;59.35;100517.41;5102475;27;20819;-62
2021/07/06 01:50:27;;;;;;;0.90;0.90;;;;;;;22.44;59.19;100513.13;5105499;27;20540;-62
2021/07/06 01:52:55;;;;;;;1.10;1.10;;;;;;;22.43;59.08;100505.34;5104052;28;20473;-62
2021/07/06 01:55:30;;;;;;;0.80;0.80;;;;;;;22.44;59.56;100506.97;5105537;28;20116;-62
2021/07/06 01:57:57;;;;;;;1.17;1.17;;;;;;;22.44;59.45;100501.66;5103977;28;20748;-62
2021/07/06 02:00:26;;;;;;;0.90;0.90;;;;;;;22.43;59.37;100490.25;5086548;28;20035;-62
2021/07/06 02:02:55;;;;;;;0.90;0.90;;;;;;;22.38;59.23;100471.47;5104263;28;20030;-62
2021/07/06 02:05:21;;;;;;;1.13;1.05;;;;;;;22.42;59.51;100485.13;5087317;28;20032;-62
2021/07/06 02:07:47;;;;;;;0.80;0.80;;;;;;;22.39;59.35;100486.38;5103186;28;20114;-62
2021/07/06 02:10:15;;;;;;;0.85;0.85;;;;;;;22.38;59.48;100479.44;5103623;28;20071;-62
2021/07/06 02:12:41;;;;;;;1.10;1.00;;;;;;;22.40;59.41;100472.09;5104231;28;20082;-62
2021/07/06 02:15:09;;;;;;;1.00;0.90;;;;;;;22.41;59.22;100473.72;5107693;28;20043;-62
2021/07/06 02:17:34;;;;;;;0.85;0.85;;;;;;;22.39;59.54;100472.28;5105816;28;20019;-62
2021/07/06 02:20:00;;;;;;;0.82;0.82;;;;;;;22.40;59.40;100469.44;5089990;28;20491;-62
2021/07/06 02:22:26;;;;;;;0.90;0.90;;;;;;;22.37;59.39;100453.94;5104319;28;20119;-62
2021/07/06 02:24:51;;;;;;;0.73;0.73;;;;;;;22.40;59.24;100460.66;5105962;28;20077;-62
2021/07/06 02:27:17;;;;;;;0.70;0.70;;;;;;;22.38;59.75;100460.88;5103764;28;20044;-62
2021/07/06 02:29:42;;;;;;;0.70;0.70;;;;;;;22.39;59.46;100454.53;5102350;28;20465;-62
2021/07/06 02:32:09;;;;;;;1.23;0.90;;;;;;;22.38;59.28;100444.94;5105258;28;20043;-62
2021/07/06 02:34:34;;;;;;;0.85;0.85;;;;;;;22.38;59.42;100442.28;5104764;28;20031;-61
2021/07/06 02:37:01;;;;;;;1.13;1.02;;;;;;;22.38;59.00;100441.47;5104325;28;20545;-62
2021/07/06 02:39:26;;;;;;;0.98;0.98;;;;;;;22.37;59.55;100443.31;5103903;28;20038;-62
2021/07/06 02:41:52;;;;;;;1.00;1.00;;;;;;;22.38;59.50;100438.81;5105267;27;20028;-62
2021/07/06 02:44:18;;;;;;;0.98;0.98;;;;;;;22.37;59.35;100435.34;5108162;27;20039;-62
2021/07/06 02:46:43;;;;;;;0.80;0.80;;;;;;;22.33;59.32;100431.50;5107565;27;20397;-62
2021/07/06 02:49:09;;;;;;;0.70;0.70;;;;;;;22.35;59.57;100428.63;5090065;28;20051;-62
2021/07/06 02:51:35;;;;;;;0.85;0.85;;;;;;;22.36;59.50;100417.00;5107825;28;20039;-62
2021/07/06 02:54:01;;;;;;;0.90;0.90;;;;;;;22.35;59.57;100424.13;5105738;27;20051;-62
2021/07/06 02:56:27;;;;;;;0.90;0.90;;;;;;;22.36;59.66;100417.81;5106892;28;20126;-62
2021/07/06 02:58:53;;;;;;;0.80;0.80;;;;;;;22.35;59.67;100431.28;5107111;28;20092;-62
2021/07/06 03:01:18;;;;;;;0.93;0.93;;;;;;;22.31;59.29;100415.78;5108746;27;20035;-62
2021/07/06 03:03:44;;;;;;;0.95;0.95;;;;;;;22.35;59.42;100426.78;5107347;27;20035;-62
2021/07/06 03:06:09;;;;;;;0.68;0.68;;;;;;;22.35;59.55;100420.66;5107691;28;20039;-62
2021/07/06 03:08:35;;;;;;;0.70;0.70;;;;;;;22.35;59.53;100418.03;5106332;28;20043;-62
2021/07/06 03:11:01;;;;;;;0.90;0.90;;;;;;;22.29;59.54;100401.91;5105551;27;20225;-62
2021/07/06 03:13:26;;;;;;;0.80;0.80;;;;;;;22.34;59.64;100403.94;5110772;27;20055;-62
2021/07/06 03:15:52;;;;;;;0.77;0.77;;;;;;;22.34;59.70;100403.13;5108471;27;20035;-62
2021/07/06 03:18:18;;;;;;;0.70;0.70;;;;;;;22.33;59.45;100401.50;5110546;27;20404;-62
2021/07/06 03:20:44;;;;;;;0.82;0.82;;;;;;;22.31;59.55;100405.19;5088097;28;20038;-62
2021/07/06 03:23:10;;;;;;;0.90;0.85;;;;;;;22.32;59.33;100392.72;5110341;27;20063;-62
2021/07/06 03:25:36;;;;;;;0.70;0.70;;;;;;;22.32;59.59;100403.34;5110209;27;20040;-62
2021/07/06 03:28:03;;;;;;;0.80;0.80;;;;;;;22.32;59.71;100390.06;5106302;27;20028;-62
2021/07/06 03:30:32;;;;;;;0.77;0.77;;;;;;;22.29;59.71;100361.31;5108851;27;20092;-62
2021/07/06 03:32:59;;;;;;;0.82;0.82;;;;;;;22.31;59.17;100359.25;5106251;27;20027;-62
2021/07/06 03:35:25;;;;;;;0.75;0.75;;;;;;;22.32;59.39;100379.47;5108066;28;20469;-62
2021/07/06 03:37:51;;;;;;;0.75;0.75;;;;;;;22.30;59.30;100390.28;5105212;28;20477;-62
2021/07/06 03:40:18;;;;;;;0.80;0.80;;;;;;;22.31;59.62;100378.66;5107683;28;20035;-62
2021/07/06 03:42:43;;;;;;;0.57;0.57;;;;;;;22.30;59.38;100366.41;5103947;28;20100;-62
2021/07/06 03:45:12;;;;;;;0.60;0.60;;;;;;;22.26;59.48;100341.34;5071650;27;20784;-62
2021/07/06 03:47:39;;;;;;;0.70;0.70;;;;;;;22.29;59.48;100340.09;5107359;28;20044;-62
2021/07/06 03:50:07;;;;;;;0.77;0.77;;;;;;;22.30;59.19;100339.88;5105898;28;20035;-62
2021/07/06 03:52:33;;;;;;;0.60;0.60;;;;;;;22.30;59.27;100339.88;5106040;27;20816;-62
2021/07/06 03:54:58;;;;;;;0.68;0.68;;;;;;;22.30;59.45;100344.38;5106637;28;20106;-62
2021/07/06 03:57:30;;;;;;;1.02;0.60;;;;;;;22.30;59.30;100336.41;5108339;27;20477;-62
2021/07/06 04:00:04;;;;;;;0.77;0.77;;;;;;;22.30;59.34;100329.28;5106251;28;20078;-62
2021/07/06 04:02:34;;;;;;;0.80;0.80;;;;;;;22.31;59.41;100324.78;5109357;27;20118;-62
2021/07/06 04:05:02;;;;;;;0.63;0.63;;;;;;;22.30;59.23;100333.75;5104725;27;20493;-61
2021/07/06 04:07:28;;;;;;;0.80;0.80;;;;;;;22.30;59.58;100334.59;5106193;27;20529;-62
2021/07/06 04:09:53;;;;;;;0.73;0.73;;;;;;;22.30;59.11;100331.94;5109801;27;20035;-62
2021/07/06 04:12:20;;;;;;;0.90;0.90;;;;;;;22.30;59.33;100328.47;5091240;27;20398;-62
2021/07/06 04:14:45;;;;;;;0.77;0.77;;;;;;;22.30;59.35;100320.50;5091188;28;20039;-62
2021/07/06 04:17:12;;;;;;;0.60;0.60;;;;;;;22.27;59.44;100303.16;5104923;28;20133;-62
2021/07/06 04:19:37;;;;;;;0.60;0.60;;;;;;;22.29;59.26;100311.72;5107504;27;20551;-62
2021/07/06 04:22:03;;;;;;;0.47;0.47;;;;;;;22.31;59.52;100332.75;5105375;27;20035;-62
2021/07/06 04:24:30;;;;;;;0.80;0.80;;;;;;;22.29;59.26;100327.66;5106619;27;20044;-62
2021/07/06 04:26:59;;;;;;;0.70;0.70;;;;;;;22.30;59.56;100329.28;5106383;27;20237;-62
2021/07/06 04:29:25;;;;;;;0.60;0.60;;;;;;;22.31;59.31;100328.25;5088234;28;20032;-62
2021/07/06 04:31:53;;;;;;;0.60;0.60;;;;;;;22.31;59.55;100325.59;5105225;28;20393;-62
2021/07/06 04:34:18;;;;;;;0.80;0.80;;;;;;;22.28;59.26;100320.72;5101814;28;20560;-62
2021/07/06 04:36:44;;;;;;;0.63;0.63;;;;;;;22.32;59.36;100307.84;5103748;28;20173;-62
2021/07/06 04:39:09;;;;;;;0.50;0.50;;;;;;;22.30;59.49;100305.41;5105538;27;20050;-61
2021/07/06 04:41:35;;;;;;;0.50;0.50;;;;;;;22.30;59.04;100318.66;5105097;27;20051;-62
2021/07/06 04:44:01;;;;;;;0.60;0.60;;;;;;;22.31;59.29;100316.81;5102941;28;20039;-62
2021/07/06 04:46:26;;;;;;;0.88;0.88;;;;;;;22.30;59.59;100320.50;5102674;28;20073;-62
2021/07/06 04:48:52;;;;;;;0.55;0.55;;;;;;;22.30;59.51;100323.97;5101192;27;20047;-62
2021/07/06 04:51:17;;;;;;;0.52;0.52;;;;;;;22.30;59.17;100321.31;5106110;28;20044;-62
2021/07/06 04:53:44;;;;;;;0.43;0.43;;;;;;;22.31;59.55;100316.81;5109364;27;20489;-62
2021/07/06 04:56:10;;;;;;;0.55;0.55;;;;;;;22.31;59.40;100303.56;5105140;28;20035;-62
2021/07/06 04:58:37;;;;;;;0.65;0.65;;;;;;;22.31;59.36;100304.38;5106078;27;20036;-62
2021/07/06 05:01:03;;;;;;;0.68;0.68;;;;;;;22.30;59.56;100308.06;5109283;27;20044;-62
2021/07/06 05:03:31;;;;;;;0.70;0.70;;;;;;;22.30;59.31;100304.59;5088264;28;20031;-62
2021/07/06 05:05:57;;;;;;;0.63;0.63;;;;;;;22.33;59.07;100298.03;5107798;27;20366;-62
2021/07/06 05:08:23;;;;;;;0.70;0.70;;;;;;;22.31;59.40;100287.66;5107711;27;20050;-62
2021/07/06 05:10:50;;;;;;;0.50;0.50;;;;;;;22.33;59.21;100288.25;5105994;27;20044;-62
2021/07/06 05:13:15;;;;;;;0.65;0.65;;;;;;;22.34;58.99;100284.56;5103329;28;20548;-62
2021/07/06 05:15:41;;;;;;;0.40;0.40;;;;;;;22.33;59.42;100282.94;5104511;27;20047;-62
2021/07/06 05:18:07;;;;;;;0.57;0.57;;;;;;;22.35;59.34;100283.53;5104778;27;20024;-62
2021/07/06 05:20:33;;;;;;;0.40;0.40;;;;;;;22.36;59.36;100290.47;5107381;27;20043;-62
2021/07/06 05:22:58;;;;;;;0.68;0.68;;;;;;;22.35;59.25;100278.25;5103922;27;20481;-62
2021/07/06 05:25:24;;;;;;;0.60;0.60;;;;;;;22.37;59.14;100281.50;5088000;28;20031;-62
2021/07/06 05:27:49;;;;;;;0.50;0.50;;;;;;;22.39;58.97;100281.28;5102672;27;20504;-62
2021/07/06 05:30:16;;;;;;;0.60;0.60;;;;;;;22.40;59.23;100277.59;5105072;27;20051;-62
2021/07/06 05:32:41;;;;;;;0.60;0.60;;;;;;;22.39;59.14;100274.13;5105423;28;20031;-62
2021/07/06 05:35:08;;;;;;;0.50;0.50;;;;;;;22.41;59.09;100274.75;5101886;28;20925;-61
2021/07/06 05:37:40;;;;;;;0.60;0.60;;;;;;;22.42;58.89;100276.38;5103262;28;20151;-61
2021/07/06 05:40:10;;;;;;;0.50;0.50;;;;;;;22.39;59.77;100273.31;5104179;27;20077;-62
2021/07/06 05:42:37;;;;;;;0.75;0.68;;;;;;;22.16;61.55;100279.94;5103041;27;20036;-62
2021/07/06 05:45:05;;;;;;;0.80;0.75;;;;;;;21.99;62.45;100282.19;5102560;28;20031;-62
2021/07/06 05:47:35;;;;;;;0.95;0.95;;;;;;;21.95;62.55;100283.63;5103423;28;20031;-62
2021/07/06 05:50:03;;;;;;;1.60;0.82;;;;;;;21.91;62.61;100268.34;5111060;27;20035;-62
2021/07/06 05:52:28;;;;;;;1.58;0.77;;;;;;;21.89;62.57;100257.09;5088507;28;20042;-63
2021/07/06 05:54:55;;;;;;;0.82;0.82;;;;;;;21.87;62.75;100256.50;5105941;28;20489;-62
2021/07/06 05:57:29;;;;;;;0.80;0.80;;;;;;;21.91;62.49;100257.75;5105937;28;20500;-62
2021/07/06 05:59:56;;;;;;;1.77;0.95;;;;;;;21.90;62.97;100262.22;5105248;28;20756;-63
2021/07/06 06:02:22;;;;;;;1.00;0.93;;;;;;;21.91;63.17;100279.75;5105378;28;20511;-62
2021/07/06 06:04:47;;;;;;;1.08;0.77;;;;;;;21.88;63.40;100280.16;5106939;28;20030;-62
2021/07/06 06:07:13;;;;;;;0.63;0.63;;;;;;;21.83;63.92;100273.84;5104521;28;20047;-62
2021/07/06 06:09:38;;;;;;;0.63;0.63;;;;;;;21.84;63.12;100286.88;5105833;28;20040;-62
2021/07/06 06:12:04;;;;;;;0.90;0.90;;;;;;;21.85;63.46;100293.00;5086696;28;20485;-63
2021/07/06 06:14:30;;;;;;;0.80;0.70;;;;;;;21.76;63.85;100281.00;5113729;28;20047;-62
2021/07/06 06:16:55;;;;;;;0.77;0.77;;;;;;;21.78;63.86;100300.97;5084021;28;20086;-62
2021/07/06 06:19:21;;;;;;;0.65;0.63;;;;;;;21.79;63.90;100302.59;5111677;27;20036;-63
2021/07/06 06:21:46;;;;;;;1.20;0.80;;;;;;;21.76;63.52;100291.59;5109499;28;20039;-62
2021/07/06 06:24:12;;;;;;;0.95;0.90;;;;;;;21.79;63.69;100284.06;5107941;27;20140;-62
2021/07/06 06:26:37;;;;;;;0.70;0.70;;;;;;;21.81;63.88;100286.50;5105575;27;20064;-63
2021/07/06 06:29:03;;;;;;;0.68;0.65;;;;;;;21.78;63.48;100265.72;5107035;27;20073;-62
2021/07/06 06:31:28;;;;;;;1.35;0.70;;;;;;;21.81;63.50;100270.59;5108715;27;20050;-62
2021/07/06 06:33:54;;;;;;;0.68;0.68;;;;;;;21.80;63.60;100279.56;5100707;28;20097;-62
2021/07/06 06:36:19;;;;;;;0.60;0.60;;;;;;;21.79;63.82;100278.75;5104606;27;20070;-63
2021/07/06 06:38:45;;;;;;;0.45;0.45;;;;;;;21.78;63.93;100263.06;5110642;27;20049;-63
2021/07/06 06:41:11;;;;;;;1.17;0.77;;;;;;;21.75;63.75;100255.53;5103838;27;20048;-62
2021/07/06 06:43:36;;;;;;;0.35;0.35;;;;;;;21.78;63.58;100252.44;5099282;27;20107;-63
2021/07/06 06:46:03;;;;;;;0.88;0.88;;;;;;;21.78;63.77;100247.97;5104755;27;20490;-63
2021/07/06 06:48:28;;;;;;;0.40;0.40;;;;;;;21.61;63.71;100215.78;5110518;27;20036;-63
2021/07/06 06:50:54;;;;;;;1.75;0.80;;;;;;;21.76;64.08;100236.75;5103911;27;20031;-63
2021/07/06 06:53:19;;;;;;;0.50;0.50;;;;;;;21.71;63.97;100226.75;5106156;28;20055;-63
2021/07/06 06:55:45;;;;;;;1.08;0.63;;;;;;;21.77;63.86;100242.88;5104812;27;20046;-63
2021/07/06 06:58:10;;;;;;;0.68;0.68;;;;;;;21.76;64.06;100255.31;5111417;27;20036;-63
2021/07/06 07:00:36;;;;;;;0.35;0.35;;;;;;;21.79;63.67;100264.69;5104964;27;20100;-63
2021/07/06 07:03:02;;;;;;;0.47;0.47;;;;;;;21.77;64.21;100254.28;5102954;28;20032;-63
2021/07/06 07:05:27;;;;;;;0.30;0.30;;;;;;;21.73;64.14;100249.63;5099799;27;20485;-62
2021/07/06 07:07:57;;;;;;;0.50;0.50;;;;;;;21.76;64.04;100257.97;5109005;27;20134;-63
2021/07/06 07:10:22;;;;;;;0.40;0.40;;;;;;;21.77;63.75;100245.53;5092893;28;20068;-63
2021/07/06 07:12:48;;;;;;;0.45;0.45;;;;;;;21.76;63.87;100242.06;5102652;28;20189;-63
2021/07/06 07:15:14;;;;;;;0.68;0.40;;;;;;;21.77;63.93;100248.19;5074543;28;20039;-63
2021/07/06 07:17:40;;;;;;;0.60;0.60;;;;;;;21.76;64.01;100241.25;5089868;27;20031;-63
2021/07/06 07:20:10;;;;;;;0.60;0.60;;;;;;;21.76;63.83;100242.06;5096375;27;20050;-63
2021/07/06 07:22:35;;;;;;;0.38;0.30;;;;;;;21.74;64.01;100238.81;5101592;28;20374;-62
2021/07/06 07:25:02;;;;;;;0.43;0.43;;;;;;;21.78;63.78;100253.28;5110486;27;20456;-63
2021/07/06 07:27:28;;;;;;;0.60;0.60;;;;;;;21.79;63.73;100256.72;5110422;27;20806;-63
2021/07/06 07:29:53;;;;;;;2.28;0.50;;;;;;;21.76;64.14;100233.28;5116950;27;20048;-63
2021/07/06 07:32:19;;;;;;;0.55;0.55;;;;;;;21.77;64.21;100251.63;5117046;27;20050;-62
2021/07/06 07:34:44;;;;;;;0.93;0.50;;;;;;;21.79;64.01;100251.44;5110597;27;20419;-63
2021/07/06 07:37:10;;;;;;;0.57;0.57;;;;;;;21.79;63.89;100256.72;5106475;27;20101;-63
2021/07/06 07:39:37;;;;;;;0.90;0.50;;;;;;;21.79;64.05;100254.09;5099768;27;20039;-63
2021/07/06 07:42:04;;;;;;;0.52;0.45;;;;;;;21.79;64.13;100260.19;5114994;27;20047;-63
2021/07/06 07:44:31;;;;;;;0.73;0.73;;;;;;;21.77;64.15;100243.69;5117541;27;20034;-62
2021/07/06 07:46:57;;;;;;;0.43;0.43;;;;;;;21.78;63.97;100245.31;5101351;27;20040;-63
2021/07/06 07:49:23;;;;;;;0.38;0.38;;;;;;;21.81;63.95;100265.28;5102682;27;20039;-62
2021/07/06 07:51:49;;;;;;;0.47;0.45;;;;;;;21.80;63.96;100245.09;5112674;27;20449;-63
2021/07/06 07:54:14;;;;;;;0.40;0.40;;;;;;;21.82;63.98;100245.72;5097841;27;20201;-63
2021/07/06 07:56:41;;;;;;;0.75;0.50;;;;;;;21.80;64.07;100237.97;5105339;27;20252;-62
2021/07/06 07:59:08;;;;;;;0.68;0.30;;;;;;;21.84;63.98;100246.31;5078732;27;20041;-64
2021/07/06 08:01:34;;;;;;;0.45;0.45;;;;;;;21.85;63.78;100246.09;5097331;28;20035;-63
2021/07/06 08:03:59;;;;;;;1.25;0.55;;;;;;;21.86;64.13;100254.88;5099171;28;20434;-63
2021/07/06 08:06:25;;;;;;;0.30;0.30;;;;;;;21.85;63.88;100256.72;5104187;27;20139;-63
2021/07/06 08:08:50;;;;;;;0.50;0.35;;;;;;;21.83;63.81;100248.16;5110716;27;20101;-63
2021/07/06 08:11:16;;;;;;;0.40;0.40;;;;;;;21.87;63.58;100253.84;5082353;28;20047;-63
2021/07/06 08:13:42;;;;;;;0.40;0.40;;;;;;;21.88;63.76;100252.81;5105499;27;20052;-63
2021/07/06 08:16:07;;;;;;;0.65;0.65;;;;;;;21.87;63.92;100241.41;5107554;27;20058;-63
2021/07/06 08:18:33;;;;;;;0.60;0.60;;;;;;;21.86;63.84;100244.28;5105294;28;20036;-63
2021/07/06 08:20:58;;;;;;;0.52;0.52;;;;;;;21.89;63.56;100247.31;5107615;28;20047;-63
2021/07/06 08:23:24;;;;;;;0.40;0.40;;;;;;;21.93;63.32;100250.41;5103939;27;20031;-63
2021/07/06 08:25:50;;;;;;;0.40;0.40;;;;;;;21.90;63.50;100243.69;5104933;27;20087;-62
2021/07/06 08:28:18;;;;;;;0.60;0.45;;;;;;;21.90;63.28;100248.97;5121530;27;20432;-62
2021/07/06 08:30:43;;;;;;;0.43;0.43;;;;;;;21.93;63.61;100255.69;5111135;27;20031;-62
2021/07/06 08:33:09;;;;;;;0.70;0.70;;;;;;;21.95;63.58;100261.59;5101068;27;20067;-62
2021/07/06 08:35:34;;;;;;;0.60;0.60;;;;;;;21.94;63.58;100254.66;5110527;27;20032;-63
2021/07/06 08:38:00;;;;;;;1.20;0.60;;;;;;;21.92;63.50;100241.63;5106969;28;20111;-63
2021/07/06 08:40:27;;;;;;;0.68;0.50;;;;;;;21.97;63.58;100256.91;5106336;27;20096;-62
2021/07/06 08:42:55;;;;;;;0.95;0.55;;;;;;;21.94;63.58;100255.50;5101151;27;20036;-62
2021/07/06 08:45:21;;;;;;;0.73;0.57;;;;;;;21.90;63.47;100243.69;5106104;27;20031;-63
2021/07/06 08:47:51;;;;;;;0.55;0.55;;;;;;;21.98;63.64;100251.38;5111605;27;20039;-63
2021/07/06 08:50:17;;;;;;;0.60;0.60;;;;;;;21.92;63.98;100246.13;5110200;27;20141;-62
2021/07/06 08:52:45;;;;;;;0.60;0.52;;;;;;;21.93;63.85;100245.91;5100384;27;20027;-62
2021/07/06 08:55:20;;;;;;;0.65;0.65;;;;;;;21.94;63.51;100254.66;5107184;27;20130;-62
2021/07/06 08:57:49;;;;;;;0.90;0.60;;;;;;;21.92;63.71;100241.63;5105279;27;20463;-62
2021/07/06 09:00:16;;;;;;;1.65;0.70;;;;;;;21.96;63.80;100242.84;5097940;27;20481;-63
2021/07/06 09:02:54;;;;;;;0.50;0.50;;;;;;;21.99;63.56;100238.94;5111946;27;20084;-62
2021/07/06 09:05:21;;;;;;;0.60;0.60;;;;;;;22.06;63.59;100244.25;5092068;28;20035;-62
2021/07/06 09:07:46;;;;;;;1.27;0.40;;;;;;;21.99;63.40;100226.50;5111473;27;20031;-63
2021/07/06 09:10:13;;;;;;;0.85;0.68;;;;;;;22.05;63.45;100243.44;5104111;28;20039;-62
2021/07/06 09:12:39;;;;;;;0.50;0.50;;;;;;;22.06;63.03;100241.59;5109059;27;20620;-62
2021/07/06 09:15:30;;;;;;;0.82;0.70;;;;;;;22.07;63.21;100233.44;5105967;28;20035;-62
2021/07/06 09:18:22;;;;;;;0.63;0.63;;;;;;;22.02;63.22;100223.44;5102245;27;20031;-62
2021/07/06 09:21:09;;;;;;;0.40;0.40;;;;;;;22.06;63.33;100231.81;5099354;27;20047;-62
2021/07/06 09:23:41;;;;;;;2.83;0.70;;;;;;;22.09;62.95;100243.88;5099192;27;20140;-62
2021/07/06 09:26:19;;;;;;;0.45;0.45;;;;;;;22.12;62.80;100244.25;5109775;27;20046;-62
2021/07/06 09:28:48;;;;;;;0.75;0.70;;;;;;;22.14;63.13;100246.69;5103256;27;20042;-62
2021/07/06 09:31:28;;;;;;;0.85;0.80;;;;;;;22.12;63.13;100238.13;5101110;28;20044;-62
2021/07/06 09:34:00;;;;;;;0.52;0.52;;;;;;;22.17;62.73;100236.47;5092860;28;20264;-62
2021/07/06 09:36:25;;;;;;;0.85;0.50;;;;;;;22.18;62.92;100240.75;5100763;27;20046;-62
2021/07/06 09:39:08;;;;;;;0.55;0.55;;;;;;;22.14;62.78;100238.75;5114087;27;20061;-62
2021/07/06 09:41:35;;;;;;;0.60;0.60;;;;;;;22.12;62.79;100222.22;5113349;27;20119;-62
2021/07/06 09:44:25;;;;;;;0.60;0.40;;;;;;;22.21;62.48;100236.88;5108380;27;20046;-62
2021/07/06 09:46:58;;;;;;;0.50;0.50;;;;;;;22.21;62.40;100242.97;5092964;28;20039;-62
2021/07/06 09:49:27;;;;;;;1.08;0.57;;;;;;;22.21;62.56;100245.63;5104963;27;20039;-63
2021/07/06 09:51:53;;;;;;;0.93;0.80;;;;;;;22.23;62.55;100248.88;5101752;28;20036;-62
2021/07/06 09:54:28;;;;;;;0.57;0.57;;;;;;;22.26;62.94;100250.31;5098509;28;20163;-62
2021/07/06 10:00:15;;;;;;;0.70;0.70;;;;;;;22.30;62.51;100247.03;5095314;28;20039;-61
2021/07/06 10:02:44;;;;;;;0.70;0.70;;;;;;;22.27;62.54;100260.72;5103639;28;20164;-62
2021/07/06 10:05:14;;;;;;;1.30;0.50;;;;;;;22.21;62.79;100248.28;5103651;28;20664;-62
2021/07/06 10:07:40;;;;;;;1.75;0.70;;;;;;;22.21;63.06;100250.13;5101504;28;20044;-62
2021/07/06 10:10:14;;;;;;;0.88;0.52;;;;;;;22.25;63.20;100240.72;5103356;28;20046;-62
2021/07/06 10:12:43;;;;;;;0.50;0.50;;;;;;;22.26;62.67;100242.34;5100828;28;20081;-62
2021/07/06 10:15:10;;;;;;;1.13;0.52;;;;;;;22.24;62.90;100255.00;5103619;28;20115;-62
2021/07/06 10:17:37;;;;;;;0.50;0.50;;;;;;;22.26;62.75;100260.91;5086836;28;20493;-62
2021/07/06 10:20:05;;;;;;;0.77;0.75;;;;;;;22.26;62.68;100271.53;5102715;28;20138;-62
2021/07/06 10:22:31;;;;;;;0.40;0.40;;;;;;;22.26;62.97;100260.91;5084871;28;20032;-62
2021/07/06 10:25:00;;;;;;;0.73;0.73;;;;;;;22.27;62.52;100265.22;5105002;28;20027;-62
2021/07/06 10:27:29;;;;;;;0.95;0.93;;;;;;;22.27;62.57;100263.38;5101864;28;20036;-62
2021/07/06 10:30:15;;;;;;;0.98;0.80;;;;;;;22.28;62.86;100257.06;5105535;28;20023;-62
2021/07/06 10:32:48;;;;;;;0.60;0.60;;;;;;;22.28;62.83;100267.66;5083048;28;20063;-62
2021/07/06 10:35:15;;;;;;;0.80;0.57;;;;;;;22.27;62.84;100268.69;5103778;28;20028;-63
2021/07/06 10:37:42;;;;;;;0.63;0.63;;;;;;;22.30;62.62;100283.38;5105749;28;20046;-62
2021/07/06 10:40:22;;;;;;;2.47;0.68;;;;;;;22.30;62.40;100278.88;5102594;28;20481;-62
2021/07/06 10:42:51;;;;;;;0.50;0.50;;;;;;;22.32;62.41;100273.38;5103514;28;20776;-62
2021/07/06 10:45:22;;;;;;;0.50;0.50;;;;;;;22.30;62.25;100262.97;5103376;28;20425;-61
2021/07/06 10:47:52;;;;;;;0.60;0.60;;;;;;;22.36;62.46;100282.53;5103066;28;20488;-61
2021/07/06 10:50:31;;;;;;;1.02;0.90;;;;;;;22.45;61.60;100275.16;5101421;28;20035;-61
2021/07/06 10:53:32;;;;;;;0.82;0.77;;;;;;;22.55;61.12;100273.66;5106699;28;20036;-61
2021/07/06 10:56:00;;;;;;;0.80;0.73;;;;;;;22.56;60.79;100285.09;4999961;28;20045;-61
2021/07/06 10:58:54;;;;;;;2.28;0.70;;;;;;;22.61;60.84;100285.28;5082399;28;20048;-62
2021/07/06 11:01:38;;;;;;;0.90;0.90;;;;;;;22.63;60.82;100290.41;5105280;28;20046;-62
2021/07/06 11:04:09;;;;;;;1.13;0.75;;;;;;;22.62;60.59;100289.56;5106172;28;20034;-62
2021/07/06 11:06:43;;;;;;;0.80;0.80;;;;;;;22.60;60.99;100310.19;5107977;27;20112;-61
2021/07/06 11:09:15;;;;;;;0.60;0.60;;;;;;;22.59;60.74;100314.69;5108535;27;20054;-61
2021/07/06 11:11:41;;;;;;;2.78;0.82;;;;;;;22.59;60.84;100324.47;5106709;28;20138;-61
2021/07/06 11:14:45;;;;;;;0.95;0.70;;;;;;;22.57;60.98;100314.06;5104246;27;20052;-62
2021/07/06 11:17:10;;;;;;;1.23;0.95;;;;;;;22.58;60.54;100322.84;5106286;27;20711;-61
2021/07/06 11:19:38;;;;;;;0.75;0.73;;;;;;;22.60;60.70;100334.88;5110083;27;20035;-61
2021/07/06 11:22:12;;;;;;;0.85;0.80;;;;;;;22.59;60.69;100330.59;5103503;28;20027;-61
2021/07/06 11:24:48;;;;;;;0.77;0.77;;;;;;;22.56;60.44;100328.38;5088071;27;20031;-61
2021/07/06 11:27:53;;;;;;;0.98;0.98;;;;;;;22.61;60.44;100343.66;5081657;28;20126;-62
2021/07/06 11:30:33;;;;;;;0.80;0.80;;;;;;;22.58;60.41;100330.81;5100613;28;20051;-62
2021/07/06 11:33:13;;;;;;;1.10;1.00;;;;;;;22.64;60.66;100331.84;5097014;28;20046;-61